aviador You're here:

PAII Decoded Metar

EGEGIK in AK, USA
Report Time2017-10-20 13:56:00
UTC Time2017-10-20 16:00:32
Flight Rules Old
Wind110° at 05 kt
W.Decomp.*RWY 12: 4.4 kt HW 2.3 kt LCW
RWY 03: 2.3 kt HW 4.4 kt RCW
W.Rank110° ranks 3
Current wind is below 110° avg. (10.8)
Visibility9999 m
Phenomena:N/A
Clouds:N/A
Expected CloudBase > 400 ft AGL from Temp-Dew spread
CeilingNone
Temp-8°C (ISA -23)
Dew Point-9°C (93% RH)
AAT-12.8°C
QNH994 hPa
Density Alt-2,041 ft
Elevation98 ft
Report Wrong Elevation
Raw Report
PAII 201356Z AUTO 11005KT 10SM CLR M08/M09 A2935 RMK AO2 SLP942
T10831094 FZRANO=

Extra information for PAII:More info

Metar Taf Metar & Taf Last 4 Metars F.Rules Stats Wind Profile Meteogram Temp Stats Airport Information Weather charts Add Link Nearby VenuesMetar ALERT Operation Metar Decoded Social comments

AIRNAV info for PAII